createdAt,value
2023-02-16T00:01:30.375Z,100.00
2023-02-16T00:04:15.126Z,100.00
2023-02-16T00:06:53.231Z,100.00
2023-02-16T00:09:32.513Z,100.00
2023-02-16T00:12:25.554Z,100.00
2023-02-16T00:15:02.210Z,100.00
2023-02-16T00:17:40.996Z,100.00
2023-02-16T00:20:24.213Z,100.00
2023-02-16T00:23:01.814Z,100.00
2023-02-16T00:25:43.632Z,100.00
2023-02-16T00:28:27.733Z,100.00
2023-02-16T00:31:08.664Z,100.00
2023-02-16T00:33:45.781Z,100.00
2023-02-16T00:36:24.653Z,100.00
2023-02-16T00:39:03.775Z,100.00
2023-02-16T00:41:58.675Z,100.00
2023-02-16T00:44:41.342Z,100.00
2023-02-16T00:47:25.549Z,100.00
2023-02-16T00:50:01.525Z,100.00
2023-02-16T00:52:42.179Z,100.00
2023-02-16T00:55:24.027Z,100.00
2023-02-16T00:58:08.449Z,100.00
2023-02-16T01:00:51.544Z,100.00
2023-02-16T01:03:36.649Z,100.00
2023-02-16T01:06:29.938Z,100.00
2023-02-16T01:09:34.156Z,100.00
2023-02-16T01:12:16.126Z,100.00
2023-02-16T01:14:59.720Z,100.00
2023-02-16T01:17:38.733Z,100.00
2023-02-16T01:20:23.513Z,100.00
2023-02-16T01:22:59.311Z,100.00
2023-02-16T01:25:33.243Z,100.00
2023-02-16T01:28:07.434Z,100.00
2023-02-16T01:30:40.870Z,100.00
2023-02-16T01:33:15.384Z,100.00
2023-02-16T01:35:52.005Z,100.00
2023-02-16T01:38:24.267Z,100.00
2023-02-16T01:41:01.139Z,100.00
2023-02-16T01:43:35.898Z,100.00
2023-02-16T01:46:12.146Z,100.00
2023-02-16T01:48:40.686Z,100.00
2023-02-16T01:51:17.888Z,100.00
2023-02-16T01:53:52.241Z,100.00
2023-02-16T01:56:32.298Z,100.00
2023-02-16T01:59:05.926Z,100.00
2023-02-16T02:01:48.524Z,100.00
2023-02-16T02:04:42.430Z,100.00
2023-02-16T02:07:20.682Z,100.00
2023-02-16T02:09:57.265Z,100.00
2023-02-16T02:12:33.601Z,100.00
2023-02-16T02:15:02.271Z,100.00
2023-02-16T02:17:30.620Z,100.00
2023-02-16T02:20:06.497Z,100.00
2023-02-16T02:23:19.753Z,100.00
2023-02-16T02:26:22.571Z,100.00
2023-02-16T02:29:02.283Z,100.00
2023-02-16T02:31:42.816Z,100.00
2023-02-16T02:34:23.570Z,100.00
2023-02-16T02:37:02.263Z,100.00
2023-02-16T02:39:39.953Z,100.00
2023-02-16T02:42:15.757Z,100.00
2023-02-16T02:44:55.996Z,100.00
2023-02-16T02:47:24.318Z,100.00
2023-02-16T02:49:55.568Z,100.00
2023-02-16T02:52:24.346Z,100.00
2023-02-16T02:55:10.433Z,100.00
2023-02-16T02:58:01.941Z,100.00
2023-02-16T03:00:44.091Z,100.00
2023-02-16T03:03:18.721Z,100.00
2023-02-16T03:05:52.399Z,100.00
2023-02-16T03:08:26.729Z,100.00
2023-02-16T03:11:16.571Z,100.00
2023-02-16T03:13:48.069Z,100.00
2023-02-16T03:16:22.962Z,100.00
2023-02-16T03:19:09.280Z,100.00
2023-02-16T03:21:55.375Z,100.00
2023-02-16T03:24:44.938Z,100.00
2023-02-16T03:27:32.741Z,100.00
2023-02-16T03:30:02.667Z,100.00
2023-02-16T03:32:33.212Z,100.00
2023-02-16T03:35:01.745Z,100.00
2023-02-16T03:37:30.353Z,100.00
2023-02-16T03:40:16.280Z,100.00
2023-02-16T03:42:50.658Z,100.00
2023-02-16T03:45:19.818Z,100.00
2023-02-16T03:47:49.630Z,100.00
2023-02-16T03:50:18.234Z,100.00
2023-02-16T03:52:46.873Z,100.00
2023-02-16T03:55:15.857Z,100.00
2023-02-16T03:57:44.299Z,100.00
2023-02-16T04:00:13.737Z,100.00
2023-02-16T04:02:42.145Z,100.00
2023-02-16T04:05:11.823Z,100.00
2023-02-16T04:07:40.172Z,100.00
2023-02-16T04:10:08.856Z,100.00
2023-02-16T04:12:39.842Z,100.00
2023-02-16T04:15:10.638Z,100.00
2023-02-16T04:17:39.357Z,100.00
2023-02-16T04:20:09.754Z,100.00
2023-02-16T04:22:39.494Z,100.00
2023-02-16T04:25:08.678Z,100.00
2023-02-16T04:27:37.982Z,100.00
2023-02-16T04:30:09.407Z,100.00
2023-02-16T04:32:37.834Z,100.00
2023-02-16T04:35:07.106Z,100.00
2023-02-16T04:37:35.770Z,100.00
2023-02-16T04:40:06.917Z,100.00
2023-02-16T04:42:35.486Z,100.00
2023-02-16T04:45:03.687Z,100.00
2023-02-16T04:47:31.925Z,100.00
2023-02-16T04:50:00.190Z,100.00
2023-02-16T04:52:28.564Z,100.00
2023-02-16T04:54:57.063Z,100.00
2023-02-16T04:57:26.974Z,100.00
2023-02-16T04:59:55.418Z,100.00
2023-02-16T05:02:23.765Z,100.00
2023-02-16T05:04:52.291Z,100.00
2023-02-16T05:07:20.817Z,100.00
2023-02-16T05:09:49.202Z,100.00
2023-02-16T05:12:36.007Z,100.00
2023-02-16T05:15:06.937Z,100.00
2023-02-16T05:17:35.464Z,100.00
2023-02-16T05:20:04.613Z,100.00
2023-02-16T05:22:34.639Z,100.00
2023-02-16T05:25:03.603Z,100.00
2023-02-16T05:27:32.751Z,100.00
2023-02-16T05:30:01.336Z,100.00
2023-02-16T05:32:31.546Z,100.00
2023-02-16T05:34:59.946Z,100.00
2023-02-16T05:37:28.588Z,100.00
2023-02-16T05:39:57.410Z,100.00
2023-02-16T05:42:26.651Z,100.00
2023-02-16T05:44:55.250Z,100.00
2023-02-16T05:47:23.658Z,100.00
2023-02-16T05:49:53.571Z,100.00
2023-02-16T05:52:22.147Z,100.00
2023-02-16T05:54:50.532Z,100.00
2023-02-16T05:57:19.036Z,100.00
2023-02-16T05:59:47.491Z,100.00
2023-02-16T06:02:15.949Z,100.00
2023-02-16T06:04:44.585Z,100.00
2023-02-16T06:07:14.970Z,100.00
2023-02-16T06:09:43.512Z,100.00
2023-02-16T06:12:11.936Z,100.00
2023-02-16T06:14:40.288Z,100.00
2023-02-16T06:17:08.854Z,100.00
2023-02-16T06:19:37.302Z,100.00
2023-02-16T06:22:06.661Z,100.00
2023-02-16T06:24:37.348Z,100.00
2023-02-16T06:27:06.079Z,100.00
2023-02-16T06:29:34.732Z,100.00
2023-02-16T06:32:03.428Z,100.00
2023-02-16T06:34:31.820Z,100.00
2023-02-16T06:37:00.172Z,100.00
2023-02-16T06:39:28.636Z,100.00
2023-02-16T06:41:58.614Z,100.00
2023-02-16T06:44:27.152Z,100.00
2023-02-16T06:46:56.274Z,100.00
2023-02-16T06:49:27.822Z,100.00
2023-02-16T06:51:56.704Z,100.00
2023-02-16T06:54:25.353Z,100.00
2023-02-16T06:56:54.026Z,100.00
2023-02-16T06:59:24.790Z,100.00
2023-02-16T07:01:53.296Z,100.00
2023-02-16T07:04:21.882Z,100.00
2023-02-16T07:06:50.497Z,100.00
2023-02-16T07:09:19.031Z,100.00
2023-02-16T07:11:47.525Z,100.00
2023-02-16T07:14:16.911Z,100.00
2023-02-16T07:16:47.647Z,100.00
2023-02-16T07:19:16.204Z,100.00
2023-02-16T07:21:45.162Z,100.00
2023-02-16T07:24:13.605Z,100.00
2023-02-16T07:26:42.166Z,100.00
2023-02-16T07:29:10.799Z,100.00
2023-02-16T07:31:39.653Z,100.00
2023-02-16T07:34:09.361Z,100.00
2023-02-16T07:36:38.050Z,100.00
2023-02-16T07:39:06.805Z,100.00
2023-02-16T07:41:35.272Z,100.00
2023-02-16T07:44:10.061Z,100.00
2023-02-16T07:46:38.383Z,100.00
2023-02-16T07:49:07.036Z,100.00
2023-02-16T07:51:36.997Z,100.00
2023-02-16T07:54:05.892Z,100.00
2023-02-16T07:56:35.725Z,100.00
2023-02-16T07:59:05.267Z,100.00
2023-02-16T08:01:35.505Z,100.00
2023-02-16T08:04:04.013Z,100.00
2023-02-16T08:06:37.032Z,100.00
2023-02-16T08:09:05.803Z,100.00
2023-02-16T08:11:34.414Z,100.00
2023-02-16T08:14:03.349Z,100.00
2023-02-16T08:16:31.876Z,100.00
2023-02-16T08:19:03.697Z,100.00
2023-02-16T08:21:34.616Z,100.00
2023-02-16T08:24:06.739Z,100.00
2023-02-16T08:26:39.347Z,100.00
2023-02-16T08:29:12.813Z,100.00
2023-02-16T08:31:41.883Z,100.00
2023-02-16T08:34:11.921Z,100.00
2023-02-16T08:36:41.899Z,100.00
2023-02-16T08:39:15.068Z,100.00
2023-02-16T08:41:45.438Z,100.00
2023-02-16T08:44:16.474Z,100.00
2023-02-16T08:46:46.871Z,100.00
2023-02-16T08:49:18.808Z,100.00
2023-02-16T08:51:51.020Z,100.00
2023-02-16T08:54:22.768Z,100.00
2023-02-16T08:56:51.099Z,100.00
2023-02-16T08:59:21.269Z,100.00
2023-02-16T09:01:50.392Z,98.82
2023-02-16T09:04:20.528Z,98.09
2023-02-16T09:06:50.399Z,100.00
2023-02-16T09:09:20.987Z,100.00
2023-02-16T09:11:49.895Z,100.00
2023-02-16T09:14:21.761Z,100.00
2023-02-16T09:16:50.080Z,100.00
2023-02-16T09:19:21.365Z,100.00
2023-02-16T09:21:52.187Z,100.00
2023-02-16T09:24:22.088Z,99.96
2023-02-16T09:26:52.187Z,100.00
2023-02-16T09:29:21.503Z,100.00
2023-02-16T09:31:50.398Z,100.00
2023-02-16T09:34:21.629Z,99.16
2023-02-16T09:36:50.818Z,96.20
2023-02-16T09:39:20.106Z,99.12
2023-02-16T09:42:05.091Z,99.52
2023-02-16T09:44:43.632Z,99.30
2023-02-16T09:47:21.000Z,95.88
2023-02-16T09:49:50.322Z,92.89
2023-02-16T09:52:24.510Z,90.03
2023-02-16T09:54:55.083Z,91.79
2023-02-16T09:57:39.316Z,92.42
2023-02-16T10:00:18.703Z,88.17
2023-02-16T10:02:54.235Z,90.80
2023-02-16T10:05:27.874Z,91.55
2023-02-16T10:08:04.478Z,93.91
2023-02-16T10:10:41.902Z,95.09
2023-02-16T10:13:19.295Z,94.65
2023-02-16T10:15:49.866Z,93.74
2023-02-16T10:18:24.808Z,91.58
2023-02-16T10:20:56.955Z,93.05
2023-02-16T10:23:41.893Z,93.13
2023-02-16T10:26:18.471Z,96.10
2023-02-16T10:28:50.608Z,97.49
2023-02-16T10:31:27.981Z,98.05
2023-02-16T10:34:06.983Z,93.74
2023-02-16T10:36:52.642Z,90.61
2023-02-16T10:39:27.613Z,88.33
2023-02-16T10:42:03.677Z,88.01
2023-02-16T10:44:40.346Z,89.37
2023-02-16T10:47:20.578Z,89.94
2023-02-16T10:49:50.210Z,90.69
2023-02-16T10:52:19.704Z,91.76
2023-02-16T10:54:48.208Z,91.82
2023-02-16T10:57:27.111Z,91.78
2023-02-16T10:59:59.232Z,93.75
2023-02-16T11:02:28.947Z,83.99
2023-02-16T11:04:58.870Z,89.09
2023-02-16T11:07:30.145Z,87.21
2023-02-16T11:10:01.527Z,84.64
2023-02-16T11:12:34.309Z,81.91
2023-02-16T11:15:09.481Z,78.47
2023-02-16T11:17:51.508Z,72.36
2023-02-16T11:20:31.326Z,68.39
2023-02-16T11:23:15.409Z,72.61
2023-02-16T11:25:44.256Z,82.67
2023-02-16T11:28:12.924Z,84.21
2023-02-16T11:30:44.116Z,83.72
2023-02-16T11:33:23.846Z,80.21
2023-02-16T11:35:52.399Z,80.17
2023-02-16T11:38:29.630Z,75.21
2023-02-16T11:40:58.761Z,74.14
2023-02-16T11:43:30.718Z,72.61
2023-02-16T11:46:02.240Z,61.54
2023-02-16T11:48:33.924Z,67.72
2023-02-16T11:51:04.483Z,65.78
2023-02-16T11:53:35.143Z,62.30
2023-02-16T11:56:14.001Z,54.25
2023-02-16T11:58:43.089Z,61.91
2023-02-16T12:01:24.087Z,58.60
2023-02-16T12:04:08.787Z,60.19
2023-02-16T12:06:54.935Z,62.66
2023-02-16T12:09:35.690Z,59.14
2023-02-16T12:12:11.129Z,59.13
2023-02-16T12:14:50.806Z,58.09
2023-02-16T12:17:34.095Z,58.28
2023-02-16T12:20:13.627Z,57.46
2023-02-16T12:22:47.861Z,57.33
2023-02-16T12:25:27.703Z,57.21
2023-02-16T12:28:07.330Z,59.25
2023-02-16T12:30:52.809Z,57.18
2023-02-16T12:33:36.792Z,56.70
2023-02-16T12:36:24.231Z,58.73
2023-02-16T12:39:00.848Z,65.02
2023-02-16T12:41:42.444Z,61.04
2023-02-16T12:44:16.719Z,62.79
2023-02-16T12:46:47.878Z,67.44
2023-02-16T12:49:24.753Z,62.67
2023-02-16T12:51:59.153Z,67.90
2023-02-16T12:54:34.233Z,67.84
2023-02-16T12:57:06.029Z,70.18
2023-02-16T12:59:43.648Z,71.96
2023-02-16T13:02:32.974Z,73.25
2023-02-16T13:05:10.194Z,76.88
2023-02-16T13:07:41.695Z,82.57
2023-02-16T13:10:23.188Z,79.77
2023-02-16T13:12:57.693Z,83.52
2023-02-16T13:15:50.215Z,85.15
2023-02-16T13:18:23.358Z,84.64
2023-02-16T13:21:00.456Z,84.82
2023-02-16T13:23:51.722Z,83.55
2023-02-16T13:26:58.447Z,81.33
2023-02-16T13:29:47.797Z,81.72
2023-02-16T13:32:38.163Z,82.74
2023-02-16T13:35:31.310Z,81.14
2023-02-16T13:38:16.568Z,82.18
2023-02-16T13:41:22.578Z,81.18
2023-02-16T13:43:55.782Z,85.50
2023-02-16T13:46:30.094Z,85.30
2023-02-16T13:49:07.414Z,85.82
2023-02-16T13:51:44.291Z,85.44
2023-02-16T13:54:28.144Z,84.12
2023-02-16T13:56:59.046Z,86.03
2023-02-16T14:00:01.459Z,84.26
2023-02-16T14:02:58.988Z,84.57
2023-02-16T14:05:39.979Z,86.20
2023-02-16T14:08:24.108Z,85.75
2023-02-16T14:11:15.496Z,85.33
2023-02-16T14:13:50.582Z,87.08
2023-02-16T14:16:44.257Z,86.15
2023-02-16T14:19:25.893Z,87.57
2023-02-16T14:21:59.388Z,88.12
2023-02-16T14:24:39.815Z,87.71
2023-02-16T14:27:13.503Z,87.18
2023-02-16T14:29:47.286Z,88.17
2023-02-16T14:32:25.912Z,88.10
2023-02-16T14:34:59.150Z,88.91
2023-02-16T14:37:38.503Z,89.21
2023-02-16T14:40:19.302Z,88.75
2023-02-16T14:43:08.420Z,89.29
2023-02-16T14:46:13.151Z,89.95
2023-02-16T14:49:40.980Z,89.89
2023-02-16T14:52:49.071Z,90.94
2023-02-16T14:55:44.180Z,90.99
2023-02-16T14:58:31.970Z,91.40
2023-02-16T15:01:07.581Z,91.80
2023-02-16T15:03:46.405Z,91.97
2023-02-16T15:06:32.403Z,92.38
2023-02-16T15:09:04.428Z,92.99
2023-02-16T15:11:56.396Z,92.60
2023-02-16T15:14:28.511Z,93.00
2023-02-16T15:16:59.081Z,92.93
2023-02-16T15:19:31.704Z,93.96
2023-02-16T15:22:10.958Z,94.58
2023-02-16T15:24:39.439Z,94.37
2023-02-16T15:27:07.927Z,94.48
2023-02-16T15:29:38.980Z,94.80
2023-02-16T15:32:09.118Z,95.51
2023-02-16T15:34:37.811Z,95.74
2023-02-16T15:37:26.892Z,96.11
2023-02-16T15:40:15.064Z,97.06
2023-02-16T15:42:46.137Z,97.47
2023-02-16T15:45:30.899Z,97.12
2023-02-16T15:48:25.064Z,97.90
2023-02-16T15:50:59.816Z,98.82
2023-02-16T15:53:45.137Z,98.61
2023-02-16T15:56:29.712Z,99.42
2023-02-16T15:59:01.910Z,99.87
2023-02-16T16:01:37.590Z,100.00
2023-02-16T16:04:14.067Z,100.00
2023-02-16T16:06:42.956Z,100.00
2023-02-16T16:09:21.997Z,100.00
2023-02-16T16:11:52.264Z,100.00
2023-02-16T16:14:21.670Z,100.00
2023-02-16T16:16:51.961Z,100.00
2023-02-16T16:19:24.895Z,100.00
2023-02-16T16:21:55.789Z,100.00
2023-02-16T16:27:56.102Z,100.00
2023-02-16T16:30:32.251Z,100.00
2023-02-16T16:33:05.639Z,100.00
2023-02-16T16:35:40.279Z,100.00
2023-02-16T16:38:22.914Z,100.00
2023-02-16T16:40:53.702Z,100.00
2023-02-16T16:43:26.189Z,100.00
2023-02-16T16:45:58.865Z,100.00
2023-02-16T16:48:34.426Z,100.00
2023-02-16T16:51:15.758Z,100.00
2023-02-16T16:53:54.317Z,100.00
2023-02-16T16:56:23.493Z,100.00
2023-02-16T16:58:54.158Z,100.00
2023-02-16T17:01:23.088Z,100.00
2023-02-16T17:03:53.335Z,100.00
2023-02-16T17:06:23.084Z,100.00
2023-02-16T17:08:52.095Z,100.00
2023-02-16T17:11:27.722Z,100.00
2023-02-16T17:13:58.160Z,100.00
2023-02-16T17:16:29.927Z,100.00
2023-02-16T17:19:00.047Z,100.00
2023-02-16T17:21:28.758Z,100.00
2023-02-16T17:23:57.551Z,100.00
2023-02-16T17:26:26.148Z,100.00
2023-02-16T17:28:54.988Z,100.00
2023-02-16T17:31:23.874Z,100.00
2023-02-16T17:33:52.784Z,100.00
2023-02-16T17:36:24.742Z,100.00
2023-02-16T17:38:53.746Z,100.00
2023-02-16T17:41:24.660Z,100.00
2023-02-16T17:43:53.822Z,100.00
2023-02-16T17:46:24.793Z,100.00
2023-02-16T17:48:55.280Z,100.00
2023-02-16T17:51:27.422Z,100.00
2023-02-16T17:53:56.497Z,100.00
2023-02-16T17:56:26.185Z,100.00
2023-02-16T17:58:55.029Z,100.00
2023-02-16T18:01:23.842Z,100.00
2023-02-16T18:03:53.272Z,100.00
2023-02-16T18:06:26.373Z,100.00
2023-02-16T18:08:58.411Z,100.00
2023-02-16T18:11:27.360Z,100.00
2023-02-16T18:13:56.048Z,100.00
2023-02-16T18:16:28.514Z,100.00
2023-02-16T18:18:58.348Z,100.00
2023-02-16T18:21:27.294Z,100.00
2023-02-16T18:23:57.271Z,100.00
2023-02-16T18:26:26.194Z,100.00
2023-02-16T18:28:55.258Z,100.00
2023-02-16T18:31:23.887Z,100.00
2023-02-16T18:33:53.225Z,100.00
2023-02-16T18:36:21.776Z,100.00
2023-02-16T18:38:51.650Z,100.00
2023-02-16T18:41:22.058Z,100.00
2023-02-16T18:43:50.779Z,100.00
2023-02-16T18:46:19.707Z,100.00
2023-02-16T18:48:48.776Z,100.00
2023-02-16T18:51:18.577Z,100.00
2023-02-16T18:53:47.165Z,100.00
2023-02-16T18:56:15.940Z,100.00
2023-02-16T18:58:45.907Z,100.00
2023-02-16T19:01:15.665Z,100.00
2023-02-16T19:03:44.974Z,100.00
2023-02-16T19:06:13.623Z,100.00
2023-02-16T19:08:42.454Z,100.00
2023-02-16T19:11:13.874Z,100.00
2023-02-16T19:13:42.907Z,100.00
2023-02-16T19:16:13.515Z,100.00
2023-02-16T19:18:42.563Z,100.00
2023-02-16T19:21:14.636Z,100.00
2023-02-16T19:23:43.843Z,100.00
2023-02-16T19:26:15.255Z,100.00
2023-02-16T19:28:44.744Z,100.00
2023-02-16T19:31:20.929Z,100.00
2023-02-16T19:33:50.259Z,100.00
2023-02-16T19:36:20.336Z,100.00
2023-02-16T19:38:49.171Z,100.00
2023-02-16T19:41:20.975Z,100.00
2023-02-16T19:43:50.390Z,100.00
2023-02-16T19:46:20.559Z,100.00
2023-02-16T19:48:49.382Z,100.00
2023-02-16T19:51:18.497Z,100.00
2023-02-16T19:53:47.373Z,100.00
2023-02-16T19:56:18.313Z,100.00
2023-02-16T19:58:47.205Z,100.00
2023-02-16T20:01:17.950Z,100.00
2023-02-16T20:03:48.982Z,100.00
2023-02-16T20:06:29.125Z,100.00
2023-02-16T20:08:59.907Z,100.00
2023-02-16T20:11:37.263Z,100.00
2023-02-16T20:14:06.037Z,100.00
2023-02-16T20:16:34.901Z,100.00
2023-02-16T20:19:05.906Z,100.00
2023-02-16T20:21:35.643Z,100.00
2023-02-16T20:24:07.036Z,100.00
2023-02-16T20:26:38.676Z,100.00
2023-02-16T20:29:09.878Z,100.00
2023-02-16T20:31:41.871Z,100.00
2023-02-16T20:34:12.321Z,100.00
2023-02-16T20:36:41.065Z,100.00
2023-02-16T20:39:10.043Z,100.00
2023-02-16T20:41:38.925Z,100.00
2023-02-16T20:44:08.206Z,100.00
2023-02-16T20:46:36.807Z,100.00
2023-02-16T20:49:06.849Z,100.00
2023-02-16T20:51:38.118Z,100.00
2023-02-16T20:54:08.951Z,100.00
2023-02-16T20:56:37.771Z,100.00
2023-02-16T20:59:07.312Z,100.00
2023-02-16T21:05:11.019Z,100.00
2023-02-16T21:08:15.389Z,100.00
2023-02-16T21:11:18.412Z,100.00
2023-02-16T21:14:06.458Z,100.00
2023-02-16T21:16:47.954Z,100.00
2023-02-16T21:19:40.325Z,100.00
2023-02-16T21:22:27.347Z,100.00
2023-02-16T21:25:27.344Z,100.00
2023-02-16T21:28:19.933Z,100.00
2023-02-16T21:31:29.860Z,100.00
2023-02-16T21:34:21.169Z,100.00
2023-02-16T21:37:18.030Z,100.00
2023-02-16T21:40:41.322Z,100.00
2023-02-16T21:43:50.987Z,100.00
2023-02-16T21:46:51.144Z,100.00
2023-02-16T21:49:50.242Z,100.00
2023-02-16T21:52:53.162Z,100.00
2023-02-16T21:56:05.396Z,100.00
2023-02-16T21:59:16.015Z,100.00
2023-02-16T22:02:13.447Z,100.00
2023-02-16T22:05:15.070Z,100.00
2023-02-16T22:08:17.023Z,100.00
2023-02-16T22:11:28.070Z,100.00
2023-02-16T22:14:29.676Z,100.00
2023-02-16T22:17:39.413Z,100.00
2023-02-16T22:20:41.432Z,100.00
2023-02-16T22:26:51.580Z,100.00
2023-02-16T22:29:54.604Z,100.00
2023-02-16T22:32:47.840Z,100.00
2023-02-16T22:35:44.057Z,100.00
2023-02-16T22:38:35.073Z,100.00
2023-02-16T22:41:37.201Z,100.00
2023-02-16T22:44:48.308Z,100.00
2023-02-16T22:47:51.999Z,100.00
2023-02-16T22:50:54.449Z,100.00
2023-02-16T22:53:42.323Z,100.00
2023-02-16T22:56:42.613Z,100.00
2023-02-16T22:59:39.653Z,100.00
2023-02-16T23:02:32.679Z,100.00
2023-02-16T23:05:58.666Z,100.00
2023-02-16T23:09:24.165Z,100.00
2023-02-16T23:12:21.436Z,100.00
2023-02-16T23:15:20.896Z,100.00
2023-02-16T23:18:16.620Z,100.00
2023-02-16T23:21:18.247Z,100.00
2023-02-16T23:24:22.936Z,100.00
2023-02-16T23:27:27.524Z,100.00
2023-02-16T23:30:31.048Z,100.00
2023-02-16T23:33:06.258Z,100.00
2023-02-16T23:35:47.393Z,100.00
2023-02-16T23:38:22.876Z,100.00
2023-02-16T23:41:05.298Z,100.00
2023-02-16T23:43:46.975Z,100.00
2023-02-16T23:46:32.006Z,100.00
2023-02-16T23:49:20.787Z,100.00
2023-02-16T23:51:57.902Z,100.00
2023-02-16T23:54:41.113Z,100.00
2023-02-16T23:57:16.296Z,100.00
2023-02-16T23:59:54.673Z,100.00
